Time;durP1;ratioP1;P1;durP2;ratioP2;P2;SDS_P1;SDS_P2;PMS_P1;PMS_P2;Temp;Humidity;BMP_temperature;BMP_pressure;BME280_temperature;BME280_humidity;BME280_pressure;Samples;Min_cycle;Max_cycle;Signal;HPM_P1;HPM_P2
2022/05/09 00:01:35;;;;;;;5.43;1.80;;;11.50;57.60;;;;;;5041453;28;20049;-69
2022/05/09 00:04:01;;;;;;;5.32;1.85;;;11.50;57.70;;;;;;5046965;28;20017;-70
2022/05/09 00:06:26;;;;;;;6.68;2.13;;;11.40;58.20;;;;;;5057591;28;20034;-69
2022/05/09 00:08:52;;;;;;;5.20;2.17;;;11.40;58.70;;;;;;5056740;28;20036;-69
2022/05/09 00:11:18;;;;;;;7.30;2.05;;;11.30;58.80;;;;;;5062118;28;20031;-69
2022/05/09 00:13:43;;;;;;;4.80;2.00;;;11.30;58.80;;;;;;5053458;28;20032;-68
2022/05/09 00:16:10;;;;;;;4.25;1.85;;;11.30;58.70;;;;;;5051216;28;20526;-68
2022/05/09 00:18:35;;;;;;;4.72;1.77;;;11.30;58.60;;;;;;5054294;28;20452;-68
2022/05/09 00:21:01;;;;;;;4.18;1.63;;;11.30;58.80;;;;;;5057390;28;20025;-68
2022/05/09 00:23:27;;;;;;;6.65;2.30;;;11.30;58.90;;;;;;5046873;28;20398;-69
2022/05/09 00:25:52;;;;;;;8.40;2.35;;;11.20;59.70;;;;;;5051387;28;20158;-68
2022/05/09 00:28:18;;;;;;;6.10;1.90;;;11.20;60.10;;;;;;5055139;28;20037;-69
2022/05/09 00:30:43;;;;;;;7.65;2.50;;;11.10;59.90;;;;;;5056429;28;20104;-70
2022/05/09 00:33:09;;;;;;;11.05;2.83;;;11.00;60.70;;;;;;5045494;28;20545;-70
2022/05/09 00:35:36;;;;;;;6.78;2.20;;;10.90;61.00;;;;;;5053235;28;20448;-69
2022/05/09 00:38:01;;;;;;;6.82;2.00;;;10.90;60.60;;;;;;5049813;28;20386;-69
2022/05/09 00:40:27;;;;;;;5.95;1.90;;;10.90;60.50;;;;;;5056197;28;20402;-69
2022/05/09 00:42:54;;;;;;;6.43;2.22;;;10.90;60.40;;;;;;5060212;28;20525;-69
2022/05/09 00:45:22;;;;;;;8.05;2.45;;;10.90;60.90;;;;;;5058179;28;20028;-71
2022/05/09 00:47:47;;;;;;;5.70;2.40;;;10.80;62.00;;;;;;5056963;28;20040;-71
2022/05/09 00:50:17;;;;;;;7.38;2.42;;;10.70;62.10;;;;;;5054453;28;20124;-71
2022/05/09 00:53:04;;;;;;;7.15;2.47;;;10.60;62.30;;;;;;5047231;28;20037;-70
2022/05/09 00:55:46;;;;;;;12.00;2.85;;;10.60;62.40;;;;;;5041402;28;20025;-70
2022/05/09 00:58:14;;;;;;;;;;;10.60;62.50;;;;;;5041709;28;20411;-70
2022/05/09 01:00:44;;;;;;;7.03;2.50;;;10.60;62.60;;;;;;5043967;28;19909;-70
2022/05/09 01:03:13;;;;;;;6.57;2.75;;;10.50;63.30;;;;;;5049269;28;20025;-70
2022/05/09 01:05:42;;;;;;;8.07;3.05;;;10.40;63.70;;;;;;5059914;28;20032;-70
2022/05/09 01:08:08;;;;;;;7.80;2.95;;;10.40;64.20;;;;;;5054805;28;20025;-69
2022/05/09 01:10:37;;;;;;;5.20;2.30;;;10.40;64.20;;;;;;5058094;28;20025;-69
2022/05/09 01:13:07;;;;;;;7.00;2.45;;;10.40;64.00;;;;;;5055932;28;20029;-69
2022/05/09 01:15:33;;;;;;;8.00;2.38;;;10.40;63.80;;;;;;5041266;28;20029;-69
2022/05/09 01:18:01;;;;;;;9.55;3.00;;;10.40;63.70;;;;;;5057653;28;20017;-70
2022/05/09 01:20:27;;;;;;;9.68;2.75;;;10.40;64.00;;;;;;5057000;28;20032;-70
2022/05/09 01:22:57;;;;;;;10.80;3.15;;;10.30;64.20;;;;;;5051118;28;20024;-69
2022/05/09 01:25:23;;;;;;;9.57;3.30;;;10.30;64.60;;;;;;5052909;28;20496;-70
2022/05/09 01:27:49;;;;;;;6.28;2.60;;;10.30;64.80;;;;;;5049259;28;20029;-69
2022/05/09 01:30:37;;;;;;;7.93;2.85;;;10.20;64.90;;;;;;5047905;28;20494;-69
2022/05/09 01:33:09;;;;;;;10.70;3.75;;;10.20;64.90;;;;;;5040547;28;20055;-69
2022/05/09 01:35:57;;;;;;;7.55;3.40;;;10.20;65.00;;;;;;5038804;28;20708;-69
2022/05/09 01:38:25;;;;;;;9.05;2.90;;;10.20;65.00;;;;;;5056984;28;20075;-69
2022/05/09 01:40:51;;;;;;;9.73;3.25;;;10.20;65.20;;;;;;5051387;28;20032;-69
2022/05/09 01:43:33;;;;;;;9.32;3.00;;;10.10;65.50;;;;;;5067266;28;20398;-69
2022/05/09 01:46:00;;;;;;;7.60;2.85;;;10.10;65.30;;;;;;5036436;28;20025;-69
2022/05/09 01:51:10;;;;;;;7.43;2.90;;;10.10;66.20;;;;;;5044502;28;20502;-69
2022/05/09 01:53:36;;;;;;;8.82;2.97;;;10.10;65.60;;;;;;5032189;28;20026;-69
2022/05/09 01:56:01;;;;;;;6.85;2.58;;;10.00;65.50;;;;;;5043278;28;20075;-69
2022/05/09 01:58:27;;;;;;;6.95;2.97;;;10.00;65.40;;;;;;5049641;28;20047;-70
2022/05/09 02:00:52;;;;;;;9.13;3.22;;;10.00;65.50;;;;;;5045812;28;20067;-70
2022/05/09 02:03:19;;;;;;;8.98;3.20;;;10.00;65.80;;;;;;5059340;28;20078;-69
2022/05/09 02:05:45;;;;;;;5.65;2.42;;;9.90;66.20;;;;;;5061690;28;20052;-69
2022/05/09 02:08:11;;;;;;;6.60;2.58;;;9.90;65.90;;;;;;5052159;28;20057;-69
2022/05/09 02:10:37;;;;;;;6.63;2.53;;;10.00;65.60;;;;;;5051930;28;20029;-70
2022/05/09 02:13:02;;;;;;;5.55;2.30;;;10.00;65.80;;;;;;5063968;28;20025;-70
2022/05/09 02:15:31;;;;;;;8.10;3.03;;;10.00;65.60;;;;;;5060518;28;20029;-70
2022/05/09 02:17:57;;;;;;;6.43;2.78;;;9.90;65.70;;;;;;5059909;28;20050;-70
2022/05/09 02:20:23;;;;;;;6.65;2.70;;;9.90;65.80;;;;;;5049855;28;20039;-70
2022/05/09 02:22:49;;;;;;;5.75;2.17;;;9.90;65.70;;;;;;5057867;28;20025;-70
2022/05/09 02:25:29;;;;;;;9.25;2.70;;;9.90;65.50;;;;;;5049632;28;20046;-70
2022/05/09 02:27:59;;;;;;;6.68;2.65;;;9.90;65.40;;;;;;5061919;28;20123;-70
2022/05/09 02:30:25;;;;;;;5.60;2.33;;;9.90;65.70;;;;;;5050534;28;20031;-70
2022/05/09 02:32:52;;;;;;;8.57;2.67;;;9.90;65.70;;;;;;5067631;28;20080;-69
2022/05/09 02:35:19;;;;;;;6.95;2.70;;;9.80;65.80;;;;;;5073204;28;20040;-69
2022/05/09 02:37:45;;;;;;;8.35;2.65;;;9.90;65.90;;;;;;5073579;28;20029;-70
2022/05/09 02:40:10;;;;;;;12.52;4.65;;;9.90;65.70;;;;;;5045790;28;20029;-70
2022/05/09 02:42:37;;;;;;;13.02;5.43;;;9.90;65.90;;;;;;5059234;28;20217;-71
2022/05/09 02:45:03;;;;;;;8.32;3.42;;;9.80;66.10;;;;;;5048771;28;20024;-72
2022/05/09 02:47:28;;;;;;;7.40;2.85;;;9.80;65.90;;;;;;5054245;28;20037;-71
2022/05/09 02:49:54;;;;;;;6.55;2.72;;;9.80;66.10;;;;;;5043558;28;20686;-71
2022/05/09 02:52:19;;;;;;;7.78;2.60;;;9.80;66.80;;;;;;5049048;28;20056;-70
2022/05/09 02:54:45;;;;;;;8.80;3.00;;;9.80;65.90;;;;;;5043708;28;20108;-69
2022/05/09 02:57:11;;;;;;;8.88;2.80;;;9.80;65.60;;;;;;5057537;28;20025;-70
2022/05/09 02:59:37;;;;;;;8.98;2.70;;;9.90;65.50;;;;;;5044314;28;20118;-70
2022/05/09 03:02:02;;;;;;;5.13;2.72;;;9.90;65.10;;;;;;5050728;28;20487;-70
2022/05/09 03:04:41;;;;;;;6.10;2.58;;;9.90;65.10;;;;;;5030325;28;20522;-71
2022/05/09 03:07:17;;;;;;;9.60;2.75;;;9.90;65.20;;;;;;5043158;28;20037;-70
2022/05/09 03:09:45;;;;;;;6.65;2.90;;;9.90;65.20;;;;;;5055588;28;20025;-70
2022/05/09 03:12:11;;;;;;;6.53;3.17;;;9.80;65.40;;;;;;5054628;28;20029;-72
2022/05/09 03:14:38;;;;;;;5.55;2.53;;;9.80;65.60;;;;;;5051752;28;20037;-70
2022/05/09 03:17:06;;;;;;;8.48;3.20;;;9.80;65.60;;;;;;5059730;28;20514;-69
2022/05/09 03:19:32;;;;;;;7.93;3.15;;;9.70;66.50;;;;;;5043138;28;20052;-69
2022/05/09 03:21:57;;;;;;;10.00;3.40;;;9.70;66.10;;;;;;5060989;28;20062;-71
2022/05/09 03:24:23;;;;;;;7.68;3.22;;;9.60;66.10;;;;;;5046856;28;20706;-71
2022/05/09 03:26:49;;;;;;;6.88;2.97;;;9.70;66.70;;;;;;5047431;28;20463;-70
2022/05/09 03:29:18;;;;;;;6.95;2.80;;;9.70;66.20;;;;;;5050391;28;20111;-71
2022/05/09 03:31:44;;;;;;;6.18;2.90;;;9.70;66.10;;;;;;5057340;28;20024;-70
2022/05/09 03:34:10;;;;;;;5.03;2.40;;;9.70;66.00;;;;;;5040999;28;20033;-71
2022/05/09 03:36:35;;;;;;;8.35;3.25;;;9.70;66.00;;;;;;5041415;28;20111;-71
2022/05/09 03:39:01;;;;;;;6.28;2.80;;;9.70;66.10;;;;;;5067645;28;20123;-71
2022/05/09 03:41:26;;;;;;;7.28;2.80;;;9.60;66.20;;;;;;5056585;28;20076;-69
2022/05/09 03:43:52;;;;;;;9.48;2.83;;;9.60;66.40;;;;;;5057892;28;20050;-68
2022/05/09 03:46:17;;;;;;;7.38;3.03;;;9.60;66.10;;;;;;5039040;28;20036;-69
2022/05/09 03:48:43;;;;;;;7.72;3.10;;;9.60;66.40;;;;;;5061161;28;20063;-69
2022/05/09 03:51:09;;;;;;;6.80;2.63;;;9.60;66.40;;;;;;5060933;28;20107;-68
2022/05/09 03:53:35;;;;;;;7.45;2.88;;;9.60;66.20;;;;;;5043624;28;20116;-68
2022/05/09 03:56:01;;;;;;;8.43;3.20;;;9.60;66.10;;;;;;5038869;28;20036;-69
2022/05/09 03:58:27;;;;;;;7.82;3.63;;;9.60;66.20;;;;;;5051748;28;20047;-69
2022/05/09 04:00:52;;;;;;;8.05;2.90;;;9.60;66.50;;;;;;5047455;28;20155;-68
2022/05/09 04:03:19;;;;;;;11.02;3.08;;;9.60;66.50;;;;;;5052916;28;20112;-69
2022/05/09 04:05:45;;;;;;;5.50;2.35;;;9.60;66.40;;;;;;5040328;28;20437;-69
2022/05/09 04:08:16;;;;;;;7.85;3.20;;;9.70;66.20;;;;;;5042851;28;20395;-69
2022/05/09 04:10:43;;;;;;;6.60;2.55;;;9.70;66.10;;;;;;5045799;28;20526;-69
2022/05/09 04:13:09;;;;;;;8.05;2.95;;;9.70;65.90;;;;;;5058764;28;20016;-71
2022/05/09 04:18:21;;;;;;;5.82;2.70;;;9.70;65.80;;;;;;5053902;28;20067;-70
2022/05/09 04:20:49;;;;;;;7.80;3.08;;;9.70;65.60;;;;;;5035004;28;20064;-70
2022/05/09 04:23:15;;;;;;;7.95;2.63;;;9.70;65.50;;;;;;5061144;28;20051;-69
2022/05/09 04:25:41;;;;;;;6.32;2.92;;;9.80;65.60;;;;;;5049029;28;20053;-70
2022/05/09 04:28:08;;;;;;;9.30;3.33;;;9.80;65.50;;;;;;5060956;28;20552;-70
2022/05/09 04:30:36;;;;;;;9.13;2.80;;;9.80;65.50;;;;;;5061863;28;20098;-68
2022/05/09 04:33:04;;;;;;;8.15;3.00;;;9.80;65.30;;;;;;5052287;28;20028;-70
2022/05/09 04:35:30;;;;;;;8.00;3.42;;;9.80;65.20;;;;;;5051817;28;20484;-69
2022/05/09 04:37:56;;;;;;;5.97;2.72;;;9.80;65.20;;;;;;5049507;28;20039;-68
2022/05/09 04:40:31;;;;;;;9.30;3.20;;;9.90;65.10;;;;;;5055502;28;20041;-68
2022/05/09 04:42:58;;;;;;;8.77;3.20;;;9.90;65.10;;;;;;5053571;28;20024;-68
2022/05/09 04:45:25;;;;;;;7.78;3.03;;;9.90;65.10;;;;;;5046305;28;20557;-68
2022/05/09 04:47:51;;;;;;;10.80;2.90;;;9.90;65.00;;;;;;5046255;28;20029;-69
2022/05/09 04:50:19;;;;;;;5.05;2.50;;;10.00;64.90;;;;;;5046297;28;20025;-70
2022/05/09 04:52:45;;;;;;;6.90;2.80;;;10.10;64.60;;;;;;5051380;28;20090;-70
2022/05/09 04:55:12;;;;;;;5.70;2.28;;;10.10;64.40;;;;;;5053347;28;20098;-68
2022/05/09 04:57:39;;;;;;;6.57;2.85;;;10.20;64.30;;;;;;5046926;28;20123;-70
2022/05/09 05:00:08;;;;;;;10.65;3.08;;;10.30;64.20;;;;;;5049231;28;20054;-68
2022/05/09 05:02:34;;;;;;;8.02;2.88;;;10.30;64.10;;;;;;5050242;28;20499;-69
2022/05/09 05:04:59;;;;;;;7.25;2.97;;;10.40;63.90;;;;;;5054444;28;20024;-70
2022/05/09 05:07:25;;;;;;;5.85;2.80;;;10.40;63.70;;;;;;5042546;28;20555;-70
2022/05/09 05:09:51;;;;;;;8.65;2.88;;;10.50;63.60;;;;;;5048074;28;20033;-70
2022/05/09 05:12:16;;;;;;;8.25;3.00;;;10.60;63.40;;;;;;5048355;28;20091;-68
2022/05/09 05:14:42;;;;;;;7.88;3.13;;;10.70;63.30;;;;;;5045379;28;20044;-69
2022/05/09 05:17:07;;;;;;;6.63;2.60;;;11.50;62.70;;;;;;5040980;28;20082;-69
2022/05/09 05:19:35;;;;;;;7.43;2.40;;;12.60;60.30;;;;;;5043684;28;20733;-70
2022/05/09 05:22:03;;;;;;;7.63;2.88;;;13.70;57.50;;;;;;5041391;28;20096;-70
2022/05/09 05:24:32;;;;;;;8.10;2.70;;;14.50;54.60;;;;;;5054748;28;20029;-70
2022/05/09 05:26:57;;;;;;;6.60;3.03;;;15.00;53.40;;;;;;5045839;28;20038;-70
2022/05/09 05:29:23;;;;;;;6.65;2.65;;;15.40;51.80;;;;;;5045941;28;20021;-70
2022/05/09 05:31:49;;;;;;;8.82;2.55;;;15.90;51.00;;;;;;5063410;28;20475;-70
2022/05/09 05:34:15;;;;;;;6.82;2.78;;;16.40;50.00;;;;;;5044590;28;20076;-70
2022/05/09 05:36:41;;;;;;;6.95;3.13;;;16.70;49.10;;;;;;5031495;28;20896;-71
2022/05/09 05:39:09;;;;;;;10.13;2.83;;;17.10;47.90;;;;;;5048894;28;20494;-71
2022/05/09 05:41:35;;;;;;;8.30;2.60;;;17.40;47.40;;;;;;5044799;28;20127;-72
2022/05/09 05:44:01;;;;;;;6.35;2.60;;;17.60;46.40;;;;;;5050668;28;20031;-69
2022/05/09 05:46:27;;;;;;;7.38;2.83;;;17.60;46.10;;;;;;5046335;28;20120;-67
2022/05/09 05:48:52;;;;;;;7.60;2.42;;;17.70;46.10;;;;;;5055731;28;20074;-70
2022/05/09 05:51:21;;;;;;;6.72;2.53;;;18.10;45.70;;;;;;5040769;28;20049;-70
2022/05/09 05:53:47;;;;;;;8.30;2.70;;;18.30;45.20;;;;;;5044892;28;20029;-68
2022/05/09 05:56:12;;;;;;;5.43;2.50;;;18.40;44.60;;;;;;5056276;28;20033;-69
2022/05/09 05:58:38;;;;;;;5.57;2.45;;;18.70;44.00;;;;;;5050641;28;20024;-70
2022/05/09 06:01:04;;;;;;;8.40;2.70;;;18.90;44.00;;;;;;5044030;28;20048;-69
2022/05/09 06:03:30;;;;;;;7.35;2.67;;;19.20;43.30;;;;;;5043233;28;20025;-69
2022/05/09 06:05:55;;;;;;;5.38;2.38;;;19.50;42.80;;;;;;5059472;28;20108;-70
2022/05/09 06:08:21;;;;;;;6.97;2.38;;;19.60;42.50;;;;;;5045799;28;20033;-69
2022/05/09 06:10:47;;;;;;;6.13;2.50;;;20.00;42.00;;;;;;5047705;28;20076;-70
2022/05/09 06:13:13;;;;;;;10.70;3.15;;;20.10;41.50;;;;;;5043103;28;20487;-71
2022/05/09 06:15:38;;;;;;;10.02;3.13;;;20.20;40.90;;;;;;5038716;28;20037;-69
2022/05/09 06:18:08;;;;;;;9.07;2.85;;;20.40;40.90;;;;;;5054365;28;20029;-68
2022/05/09 06:20:37;;;;;;;8.43;2.97;;;20.40;40.40;;;;;;5042780;28;20032;-70
2022/05/09 06:23:04;;;;;;;5.57;2.42;;;20.50;40.40;;;;;;5048787;28;20018;-71
2022/05/09 06:25:31;;;;;;;8.20;2.80;;;20.60;40.50;;;;;;5041361;28;20095;-69
2022/05/09 06:27:58;;;;;;;6.13;2.55;;;20.40;40.00;;;;;;5041596;28;20021;-69
2022/05/09 06:30:24;;;;;;;4.88;1.98;;;20.40;41.20;;;;;;5049513;28;20032;-69
2022/05/09 06:32:50;;;;;;;6.05;2.65;;;20.80;40.50;;;;;;5064076;28;20146;-68
2022/05/09 06:35:20;;;;;;;5.72;2.10;;;20.80;40.70;;;;;;5041149;28;20018;-68
2022/05/09 06:37:47;;;;;;;8.23;2.50;;;21.10;40.50;;;;;;5048096;28;20029;-68
2022/05/09 06:40:13;;;;;;;6.13;2.20;;;21.10;40.30;;;;;;5040105;28;20024;-68
2022/05/09 06:42:39;;;;;;;7.03;2.58;;;21.10;40.70;;;;;;5050991;28;20032;-69
2022/05/09 06:45:05;;;;;;;6.78;2.70;;;20.90;40.90;;;;;;5048694;28;20020;-68
2022/05/09 06:47:31;;;;;;;6.78;2.83;;;21.00;41.10;;;;;;5042617;28;20037;-68
2022/05/09 06:50:01;;;;;;;7.72;2.85;;;20.80;40.80;;;;;;5058570;28;20051;-68
2022/05/09 06:52:26;;;;;;;9.10;2.85;;;20.40;41.50;;;;;;5053446;28;20088;-68
2022/05/09 06:54:52;;;;;;;6.40;2.55;;;20.10;41.90;;;;;;5039792;28;20025;-68
2022/05/09 06:57:17;;;;;;;6.60;2.70;;;19.70;42.60;;;;;;5042360;28;20091;-68
2022/05/09 06:59:43;;;;;;;7.70;2.70;;;19.40;42.90;;;;;;5042816;28;20096;-68
2022/05/09 07:02:13;;;;;;;6.55;2.85;;;19.30;43.30;;;;;;5041691;28;20018;-67
2022/05/09 07:04:39;;;;;;;7.00;2.53;;;19.50;43.10;;;;;;5048585;28;20523;-70
2022/05/09 07:07:05;;;;;;;7.25;2.78;;;19.70;42.80;;;;;;5045845;28;20028;-68
2022/05/09 07:09:31;;;;;;;7.43;2.50;;;20.20;42.20;;;;;;5034448;28;20098;-67
2022/05/09 07:11:56;;;;;;;6.53;2.25;;;21.10;41.60;;;;;;5034848;28;20564;-68
2022/05/09 07:14:22;;;;;;;6.22;2.40;;;21.60;40.70;;;;;;5037325;28;20446;-67
2022/05/09 07:16:48;;;;;;;7.72;2.50;;;22.20;40.20;;;;;;5037468;28;20033;-67
2022/05/09 07:19:14;;;;;;;5.68;2.13;;;22.00;40.00;;;;;;5035762;28;20025;-66
2022/05/09 07:21:40;;;;;;;4.50;1.88;;;22.30;40.20;;;;;;5037970;28;20021;-67
2022/05/09 07:24:06;;;;;;;6.80;2.35;;;21.90;40.20;;;;;;5038913;28;20048;-69
2022/05/09 07:26:33;;;;;;;7.72;2.70;;;21.60;40.60;;;;;;5038768;28;20081;-68
2022/05/09 07:28:59;;;;;;;5.47;2.63;;;21.60;41.10;;;;;;5041085;28;20075;-68
2022/05/09 07:31:25;;;;;;;5.82;2.17;;;21.60;41.20;;;;;;5038605;28;20021;-68
2022/05/09 07:33:51;;;;;;;7.40;2.60;;;21.40;41.20;;;;;;5039954;28;20333;-68
2022/05/09 07:36:17;;;;;;;8.07;2.67;;;20.70;40.80;;;;;;5041699;28;20041;-68
2022/05/09 07:38:43;;;;;;;7.43;2.75;;;20.20;41.90;;;;;;5037927;28;20032;-68
2022/05/09 07:41:08;;;;;;;6.40;2.58;;;20.00;42.10;;;;;;5039469;28;20108;-70
2022/05/09 07:43:34;;;;;;;5.20;2.30;;;19.70;42.50;;;;;;5048186;28;20025;-70
2022/05/09 07:46:00;;;;;;;7.53;2.47;;;19.50;42.80;;;;;;5047955;28;20047;-70
2022/05/09 07:48:27;;;;;;;4.50;2.13;;;19.40;43.30;;;;;;5043935;28;20032;-70
2022/05/09 07:50:55;;;;;;;5.93;2.40;;;19.50;43.50;;;;;;5039153;28;20120;-70
2022/05/09 07:53:33;;;;;;;7.90;2.42;;;19.50;43.40;;;;;;5040255;28;20037;-69
2022/05/09 07:56:04;;;;;;;5.03;2.55;;;19.70;43.30;;;;;;5042703;28;20406;-69
2022/05/09 07:58:31;;;;;;;3.77;2.10;;;19.70;42.70;;;;;;5034082;28;20014;-70
2022/05/09 08:00:58;;;;;;;5.70;2.53;;;19.70;42.80;;;;;;5041980;28;20575;-70
2022/05/09 08:03:26;;;;;;;7.18;2.17;;;19.80;42.90;;;;;;5038360;28;20025;-70
2022/05/09 08:05:53;;;;;;;6.50;2.60;;;19.90;42.90;;;;;;5039918;28;20029;-69
2022/05/09 08:08:19;;;;;;;5.18;2.30;;;20.00;42.20;;;;;;5038637;28;20020;-69
2022/05/09 08:10:45;;;;;;;6.00;2.38;;;20.10;42.20;;;;;;5041707;28;20024;-68
2022/05/09 08:13:13;;;;;;;5.30;2.30;;;20.10;41.90;;;;;;5060979;28;20057;-71
2022/05/09 08:15:39;;;;;;;4.40;1.70;;;20.10;41.80;;;;;;5048695;28;20020;-70
2022/05/09 08:18:05;;;;;;;5.80;2.50;;;20.20;41.80;;;;;;5039327;28;20044;-69
2022/05/09 08:20:34;;;;;;;5.60;2.47;;;20.20;41.60;;;;;;5032349;28;20020;-69
2022/05/09 08:23:06;;;;;;;5.38;2.35;;;20.20;41.30;;;;;;5043997;28;20017;-70
2022/05/09 08:25:36;;;;;;;5.55;2.28;;;20.30;41.20;;;;;;5039211;28;20060;-69
2022/05/09 08:28:02;;;;;;;5.75;2.63;;;20.50;41.40;;;;;;5043973;28;20083;-70
2022/05/09 08:30:34;;;;;;;6.38;2.08;;;20.40;40.80;;;;;;5040138;28;20391;-71
2022/05/09 08:33:10;;;;;;;4.75;2.40;;;20.50;40.90;;;;;;5032896;28;20395;-71
2022/05/09 08:35:36;;;;;;;5.35;2.50;;;20.70;41.00;;;;;;5042851;28;20047;-71
2022/05/09 08:38:01;;;;;;;4.20;2.03;;;20.50;40.50;;;;;;5040581;28;20033;-70
2022/05/09 08:40:42;;;;;;;5.68;2.28;;;20.50;40.80;;;;;;5048711;28;20025;-69
2022/05/09 08:43:27;;;;;;;5.18;2.45;;;20.60;40.40;;;;;;5055532;28;20021;-68
2022/05/09 08:46:13;;;;;;;7.05;2.20;;;20.50;39.60;;;;;;5050757;28;20033;-70
2022/05/09 08:48:47;;;;;;;6.25;2.13;;;20.60;39.90;;;;;;5046060;28;20029;-71
2022/05/09 08:51:33;;;;;;;5.00;2.40;;;20.50;39.00;;;;;;5038063;28;20025;-70
2022/05/09 08:54:04;;;;;;;5.38;2.50;;;20.60;39.30;;;;;;5046344;28;20403;-71
2022/05/09 08:56:31;;;;;;;5.30;2.20;;;20.70;39.60;;;;;;5037539;28;20483;-70
2022/05/09 08:59:03;;;;;;;5.00;2.25;;;20.70;39.40;;;;;;5047277;28;20079;-69
2022/05/09 09:01:38;;;;;;;;;;;20.80;38.90;;;;;;5033810;28;20033;-69
2022/05/09 09:04:19;;;;;;;5.25;1.90;;;20.80;38.80;;;;;;5044854;28;19912;-71
2022/05/09 09:07:06;;;;;;;5.90;2.27;;;20.90;39.00;;;;;;5038377;28;20123;-72
2022/05/09 09:09:56;;;;;;;6.57;2.65;;;21.10;38.70;;;;;;5041531;28;20025;-71
2022/05/09 09:12:40;;;;;;;6.75;2.70;;;20.90;38.10;;;;;;5037027;28;20056;-71
2022/05/09 09:15:26;;;;;;;4.53;2.20;;;20.90;37.90;;;;;;5042435;28;20030;-71
2022/05/09 09:18:04;;;;;;;5.68;1.95;;;20.90;37.70;;;;;;5046649;28;20029;-71
2022/05/09 09:20:41;;;;;;;3.72;2.00;;;21.10;37.70;;;;;;5039276;28;20052;-70
2022/05/09 09:23:35;;;;;;;4.70;1.92;;;21.10;36.90;;;;;;5050815;28;20036;-71
2022/05/09 09:26:03;;;;;;;4.63;1.90;;;21.30;37.40;;;;;;5044354;28;20051;-70
2022/05/09 09:28:47;;;;;;;5.43;2.22;;;21.40;37.30;;;;;;5050189;28;20021;-70
2022/05/09 09:31:18;;;;;;;4.78;1.98;;;21.50;37.00;;;;;;5059682;28;20029;-72
2022/05/09 09:33:59;;;;;;;3.42;1.80;;;21.60;36.90;;;;;;5052956;28;20033;-71
2022/05/09 09:36:34;;;;;;;5.32;2.30;;;21.70;36.70;;;;;;5066053;28;20025;-70
2022/05/09 09:39:10;;;;;;;3.28;1.90;;;21.80;36.30;;;;;;5049136;28;20028;-69
2022/05/09 09:41:36;;;;;;;3.28;1.48;;;21.90;36.30;;;;;;5073419;28;20028;-71
2022/05/09 09:44:13;;;;;;;7.57;1.73;;;22.00;35.10;;;;;;5050663;28;20104;-69
2022/05/09 09:47:09;;;;;;;2.97;1.40;;;22.00;34.80;;;;;;5055011;28;20052;-71
2022/05/09 09:49:40;;;;;;;2.63;1.45;;;21.80;34.50;;;;;;5039887;28;20033;-70
2022/05/09 09:52:22;;;;;;;3.85;1.60;;;21.90;35.00;;;;;;5056303;28;20036;-70
2022/05/09 09:54:57;;;;;;;2.50;1.30;;;22.10;35.10;;;;;;5041061;28;20068;-69
2022/05/09 09:57:28;;;;;;;3.67;1.58;;;22.30;35.30;;;;;;5057589;28;20399;-70
2022/05/09 09:59:54;;;;;;;5.03;1.73;;;22.30;35.00;;;;;;5054885;28;20035;-70
2022/05/09 10:02:26;;;;;;;4.72;2.15;;;22.40;35.10;;;;;;5044513;28;20028;-70
2022/05/09 10:04:55;;;;;;;6.60;2.85;;;22.40;35.10;;;;;;5042646;28;20033;-70
2022/05/09 10:07:31;;;;;;;5.68;2.80;;;22.40;35.10;;;;;;5048753;28;20043;-70
2022/05/09 10:10:19;;;;;;;4.22;1.88;;;22.40;35.00;;;;;;5043849;28;20534;-69
2022/05/09 10:12:48;;;;;;;12.02;2.47;;;22.40;35.80;;;;;;5047047;28;20112;-70
2022/05/09 10:15:38;;;;;;;5.63;2.80;;;22.50;35.10;;;;;;5053224;28;20108;-70
2022/05/09 10:18:19;;;;;;;6.45;2.33;;;22.40;34.90;;;;;;5046303;28;20036;-70
2022/05/09 10:20:47;;;;;;;3.38;2.10;;;22.50;35.10;;;;;;5052052;28;20053;-70
2022/05/09 10:26:21;;;;;;;4.32;1.83;;;22.80;35.30;;;;;;5046881;28;20072;-70
2022/05/09 10:28:56;;;;;;;2.95;1.73;;;22.80;35.10;;;;;;5045470;28;20093;-70
2022/05/09 10:31:25;;;;;;;2.85;1.80;;;22.70;35.00;;;;;;5042446;28;20033;-70
2022/05/09 10:34:12;;;;;;;5.00;2.70;;;22.70;35.30;;;;;;5046397;28;20044;-70
2022/05/09 10:37:02;;;;;;;4.45;2.30;;;22.70;35.10;;;;;;5047041;28;20032;-71
2022/05/09 10:39:31;;;;;;;3.40;2.20;;;22.60;35.10;;;;;;5045282;28;20092;-70
2022/05/09 10:42:00;;;;;;;7.03;2.63;;;22.80;35.40;;;;;;5052266;28;20025;-69
2022/05/09 10:44:40;;;;;;;4.75;2.40;;;22.80;35.10;;;;;;5047391;28;20412;-70
2022/05/09 10:47:15;;;;;;;5.00;2.42;;;22.90;35.10;;;;;;5046441;28;20032;-69
2022/05/09 10:49:50;;;;;;;5.00;2.13;;;22.70;35.30;;;;;;5062136;28;20025;-69
2022/05/09 10:52:43;;;;;;;4.80;2.30;;;22.80;35.80;;;;;;5038036;28;20039;-70
2022/05/09 10:55:21;;;;;;;4.47;2.05;;;22.80;35.40;;;;;;5041846;28;20032;-71
2022/05/09 10:57:50;;;;;;;5.15;1.83;;;22.80;35.60;;;;;;5050168;28;20479;-70
2022/05/09 11:00:21;;;;;;;7.82;2.47;;;22.90;35.80;;;;;;5057290;28;20108;-70
2022/05/09 11:03:14;;;;;;;6.03;2.45;;;23.00;35.70;;;;;;5055588;28;20025;-70
2022/05/09 11:05:54;;;;;;;5.80;2.60;;;23.00;35.60;;;;;;5046999;28;20039;-70
2022/05/09 11:08:39;;;;;;;3.95;2.38;;;22.80;35.60;;;;;;5050690;28;20031;-70
2022/05/09 11:11:23;;;;;;;6.68;2.70;;;22.80;35.70;;;;;;5044311;28;20108;-69
2022/05/09 11:14:14;;;;;;;2.90;1.70;;;22.70;36.00;;;;;;5045124;28;20078;-70
2022/05/09 11:17:09;;;;;;;3.73;1.87;;;23.00;36.20;;;;;;5037214;28;20033;-70
2022/05/09 11:20:06;;;;;;;5.05;1.80;;;23.20;35.40;;;;;;5047967;28;20025;-70
2022/05/09 11:22:56;;;;;;;5.45;2.10;;;23.50;34.50;;;;;;5040325;28;20022;-70
2022/05/09 11:25:46;;;;;;;5.43;1.98;;;23.50;34.10;;;;;;5034230;28;20060;-70
2022/05/09 11:28:34;;;;;;;5.28;1.80;;;23.70;33.80;;;;;;5038376;28;20551;-70
2022/05/09 11:31:25;;;;;;;4.60;1.60;;;23.70;33.40;;;;;;5051433;28;20032;-70
2022/05/09 11:33:58;;;;;;;4.47;1.80;;;23.90;33.90;;;;;;5051648;28;20040;-69
2022/05/09 11:36:50;;;;;;;3.88;2.13;;;24.10;34.00;;;;;;5049960;28;20039;-70
2022/05/09 11:39:49;;;;;;;4.93;1.98;;;24.00;33.70;;;;;;5046270;28;20017;-69
2022/05/09 11:45:54;;;;;;;3.45;1.63;;;24.00;33.00;;;;;;5048138;28;20036;-70
2022/05/09 11:48:26;;;;;;;3.60;1.70;;;24.20;33.20;;;;;;5037369;28;20025;-70
2022/05/09 11:51:12;;;;;;;4.15;1.70;;;24.40;32.70;;;;;;5044738;28;20020;-70
2022/05/09 11:53:42;;;;;;;5.53;1.83;;;24.40;32.40;;;;;;5041747;28;20036;-70
2022/05/09 11:56:08;;;;;;;4.35;2.08;;;24.60;32.40;;;;;;5041284;28;20027;-70
2022/05/09 11:58:41;;;;;;;5.32;2.00;;;24.60;31.80;;;;;;5036674;28;20032;-69
2022/05/09 12:01:08;;;;;;;7.35;1.80;;;24.50;32.00;;;;;;5044768;28;20034;-70
2022/05/09 12:03:40;;;;;;;5.50;2.10;;;24.30;32.20;;;;;;5045071;28;20025;-69
2022/05/09 12:06:12;;;;;;;4.53;1.90;;;24.30;32.40;;;;;;5042272;28;20033;-70
2022/05/09 12:08:43;;;;;;;3.58;1.50;;;24.50;32.80;;;;;;5038567;28;20116;-70
2022/05/09 12:11:29;;;;;;;;;;;24.80;32.90;;;;;;5043967;28;20041;-70
2022/05/09 12:13:57;;;;;;;3.70;1.58;;;24.80;32.80;;;;;;5044777;28;19959;-69
2022/05/09 12:16:50;;;;;;;5.00;2.17;;;24.90;32.70;;;;;;5042145;28;20032;-69
2022/05/09 12:19:32;;;;;;;4.97;1.92;;;24.90;31.20;;;;;;5036093;28;20029;-70
2022/05/09 12:22:17;;;;;;;;;;;24.80;31.50;;;;;;5037281;28;20079;-70
2022/05/09 12:24:44;;;;;;;4.72;1.95;;;25.10;31.90;;;;;;5037268;28;19909;-70
2022/05/09 12:27:48;;;;;;;4.90;1.70;;;25.20;31.80;;;;;;5040567;28;20079;-69
2022/05/09 12:30:53;;;;;;;4.20;1.80;;;25.40;31.70;;;;;;5043451;28;20022;-70
2022/05/09 12:33:31;;;;;;;5.18;1.77;;;25.70;31.80;;;;;;5045543;28;20056;-70
2022/05/09 12:36:02;;;;;;;4.50;1.70;;;25.90;31.80;;;;;;5040229;28;20021;-69
2022/05/09 12:38:33;;;;;;;5.15;2.22;;;26.10;31.90;;;;;;5060410;28;20533;-70
2022/05/09 12:41:09;;;;;;;4.70;1.85;;;26.10;31.60;;;;;;5044925;28;20513;-70
2022/05/09 12:43:36;;;;;;;3.13;1.85;;;26.10;31.80;;;;;;5051640;28;20040;-70
2022/05/09 12:46:04;;;;;;;6.05;1.73;;;26.30;31.80;;;;;;5048204;28;20025;-69
2022/05/09 12:48:30;;;;;;;3.72;1.95;;;26.40;31.80;;;;;;5046534;28;20078;-70
2022/05/09 12:51:09;;;;;;;5.68;2.25;;;26.70;31.90;;;;;;5048651;28;20479;-69
2022/05/09 12:53:36;;;;;;;4.15;1.70;;;26.80;31.30;;;;;;5060039;28;20013;-69
2022/05/09 12:56:10;;;;;;;4.60;1.98;;;26.80;31.30;;;;;;5063512;28;20394;-70
2022/05/09 12:58:38;;;;;;;4.72;2.13;;;27.00;31.10;;;;;;5056767;28;20025;-70
2022/05/09 13:01:13;;;;;;;7.30;2.00;;;27.00;31.00;;;;;;5056583;28;20025;-70
2022/05/09 13:03:46;;;;;;;5.88;2.35;;;27.10;30.90;;;;;;5060712;28;20112;-70
2022/05/09 13:06:15;;;;;;;5.40;2.47;;;27.00;30.40;;;;;;5048779;28;20399;-70
2022/05/09 13:08:41;;;;;;;3.97;1.90;;;27.10;30.80;;;;;;5049714;28;20025;-69
2022/05/09 13:11:17;;;;;;;3.30;1.90;;;27.00;29.90;;;;;;5053174;28;20029;-69
2022/05/09 13:14:15;;;;;;;4.18;1.73;;;27.00;30.10;;;;;;5062727;28;20134;-71
2022/05/09 13:16:55;;;;;;;4.15;1.73;;;27.20;30.30;;;;;;5056551;28;20691;-71
2022/05/09 13:19:21;;;;;;;4.30;1.70;;;27.40;30.40;;;;;;5034530;28;20033;-71
2022/05/09 13:21:48;;;;;;;2.88;1.58;;;27.60;30.40;;;;;;5046927;28;20028;-69